Time;durP1;ratioP1;P1;durP2;ratioP2;P2;SDS_P1;SDS_P2;PMS_P1;PMS_P2;Temp;Humidity;BMP_temperature;BMP_pressure;BME280_temperature;BME280_humidity;BME280_pressure;Samples;Min_cycle;Max_cycle;Signal;HPM_P1;HPM_P2
2023/10/13 00:01:06;;;;;;;8.93;2.27;;;12.10;99.90;;;;;;5086879;28;20221;-45
2023/10/13 00:03:36;;;;;;;6.93;2.33;;;12.10;99.90;;;;;;5061796;28;20205;-48
2023/10/13 00:06:03;;;;;;;13.10;3.17;;;12.10;99.90;;;;;;5085155;28;20202;-48
2023/10/13 00:08:30;;;;;;;8.13;2.50;;;12.10;99.90;;;;;;5081103;28;20224;-44
2023/10/13 00:10:59;;;;;;;9.73;2.40;;;12.10;99.90;;;;;;5054614;28;20298;-45
2023/10/13 00:13:29;;;;;;;5.33;2.23;;;12.10;99.90;;;;;;5079811;28;20210;-46
2023/10/13 00:15:58;;;;;;;8.23;2.70;;;12.10;99.90;;;;;;5085360;28;20258;-45
2023/10/13 00:18:30;;;;;;;7.13;2.57;;;12.10;99.90;;;;;;5070402;28;20205;-47
2023/10/13 00:20:59;;;;;;;7.57;2.50;;;12.20;99.90;;;;;;5090035;28;20220;-49
2023/10/13 00:23:27;;;;;;;7.73;2.70;;;12.20;99.90;;;;;;5086328;28;20265;-47
2023/10/13 00:26:03;;;;;;;7.77;2.77;;;12.10;99.90;;;;;;5029180;28;20225;-46
2023/10/13 00:28:43;;;;;;;7.00;2.87;;;12.20;99.90;;;;;;5084644;28;20201;-45
2023/10/13 00:31:11;;;;;;;8.97;2.90;;;12.20;99.90;;;;;;5063499;28;20271;-49
2023/10/13 00:33:40;;;;;;;6.63;3.13;;;12.20;99.90;;;;;;5083919;28;20205;-44
2023/10/13 00:36:16;;;;;;;8.47;3.10;;;12.20;99.90;;;;;;5053911;28;20546;-49
2023/10/13 00:38:47;;;;;;;6.83;2.80;;;12.20;99.90;;;;;;5083462;28;20722;-46
2023/10/13 00:41:16;;;;;;;10.33;3.33;;;12.20;99.90;;;;;;5038415;28;20244;-47
2023/10/13 00:44:03;;;;;;;7.73;2.80;;;12.30;99.90;;;;;;5085868;28;20186;-48
2023/10/13 00:46:35;;;;;;;6.80;3.37;;;12.30;99.90;;;;;;5060553;28;20281;-48
2023/10/13 00:49:05;;;;;;;8.97;3.30;;;12.30;99.90;;;;;;5074786;28;20550;-47
2023/10/13 00:51:34;;;;;;;7.40;3.13;;;12.30;99.90;;;;;;5083457;28;20909;-49
2023/10/13 00:54:07;;;;;;;14.20;3.53;;;12.40;99.90;;;;;;5094290;28;20588;-46
2023/10/13 00:56:34;;;;;;;12.10;3.40;;;12.40;99.90;;;;;;5063279;28;20280;-48
2023/10/13 00:59:02;;;;;;;11.60;4.47;;;12.40;99.90;;;;;;5070102;28;20666;-46
2023/10/13 01:01:29;;;;;;;16.03;3.97;;;12.40;99.90;;;;;;5085632;28;20269;-45
2023/10/13 01:03:59;;;;;;;11.07;4.07;;;12.50;99.90;;;;;;5089539;28;20672;-44
2023/10/13 01:06:25;;;;;;;12.77;4.83;;;12.50;99.90;;;;;;5061373;28;20814;-45
2023/10/13 01:09:11;;;;;;;7.90;4.67;;;12.50;99.90;;;;;;5089385;28;20529;-46
2023/10/13 01:11:38;;;;;;;12.63;5.53;;;12.50;99.90;;;;;;5055294;28;20223;-49
2023/10/13 01:14:06;;;;;;;12.07;5.27;;;12.50;99.90;;;;;;5074296;28;20217;-47
2023/10/13 01:16:32;;;;;;;11.10;5.23;;;12.60;99.90;;;;;;5084742;28;20193;-46
2023/10/13 01:19:04;;;;;;;12.73;5.73;;;12.60;99.90;;;;;;5085593;28;20220;-45
2023/10/13 01:21:32;;;;;;;14.23;5.40;;;12.60;99.90;;;;;;5069074;28;20221;-48
2023/10/13 01:24:01;;;;;;;13.97;6.43;;;12.60;99.90;;;;;;5065377;28;20660;-46
2023/10/13 01:26:27;;;;;;;16.60;6.40;;;12.70;99.90;;;;;;5031608;28;21756;-45
2023/10/13 01:28:58;;;;;;;17.67;6.10;;;12.70;99.90;;;;;;5082890;28;20201;-49
2023/10/13 01:31:26;;;;;;;20.43;7.30;;;12.70;99.90;;;;;;5060298;28;20263;-49
2023/10/13 01:33:54;;;;;;;13.80;6.47;;;12.70;99.90;;;;;;5065220;28;20529;-46
2023/10/13 01:36:23;;;;;;;17.33;7.60;;;12.70;99.90;;;;;;5069823;28;20652;-47
2023/10/13 01:38:51;;;;;;;20.50;6.63;;;12.70;99.90;;;;;;5067968;28;20189;-44
2023/10/13 01:41:19;;;;;;;24.90;8.03;;;12.80;99.90;;;;;;5081391;28;20701;-46
2023/10/13 01:43:46;;;;;;;18.37;7.47;;;12.80;99.90;;;;;;5055111;28;20608;-44
2023/10/13 01:46:15;;;;;;;25.37;9.07;;;12.80;99.90;;;;;;5081713;28;20190;-46
2023/10/13 01:48:41;;;;;;;22.73;7.70;;;12.80;99.90;;;;;;5076355;28;20202;-45
2023/10/13 01:51:11;;;;;;;19.93;7.60;;;12.80;99.90;;;;;;5068586;28;20223;-46
2023/10/13 01:53:41;;;;;;;24.07;8.87;;;12.90;99.90;;;;;;5074513;28;20210;-45
2023/10/13 01:56:11;;;;;;;24.20;9.43;;;12.90;99.90;;;;;;5087860;28;20190;-48
2023/10/13 01:58:42;;;;;;;27.40;10.57;;;12.90;99.90;;;;;;5035432;28;20213;-50
2023/10/13 02:01:10;;;;;;;21.97;8.73;;;12.90;99.90;;;;;;5079386;28;20225;-50
2023/10/13 02:03:42;;;;;;;21.97;9.17;;;12.90;99.90;;;;;;5064848;28;21017;-46
2023/10/13 02:06:15;;;;;;;27.60;10.00;;;12.90;99.90;;;;;;5068909;28;20637;-48
2023/10/13 02:08:43;;;;;;;25.40;8.60;;;12.90;99.90;;;;;;5056307;28;20216;-48
2023/10/13 02:11:10;;;;;;;27.10;9.07;;;13.00;99.90;;;;;;5063483;28;20216;-48
2023/10/13 02:13:48;;;;;;;23.23;9.43;;;13.00;99.90;;;;;;5063817;28;20210;-48
2023/10/13 02:16:18;;;;;;;24.67;9.73;;;13.00;99.90;;;;;;5025482;28;20210;-51
2023/10/13 02:18:44;;;;;;;22.33;10.30;;;13.00;99.90;;;;;;5064774;28;20247;-45
2023/10/13 02:21:14;;;;;;;33.63;11.10;;;13.00;99.90;;;;;;5063997;28;20350;-47
2023/10/13 02:23:45;;;;;;;23.17;10.93;;;13.00;99.90;;;;;;5073337;28;21891;-47
2023/10/13 02:26:13;;;;;;;22.00;10.90;;;13.00;99.90;;;;;;5048534;28;20186;-49
2023/10/13 02:28:41;;;;;;;22.70;10.07;;;13.10;99.90;;;;;;5063500;28;20210;-46
2023/10/13 02:31:08;;;;;;;25.33;10.97;;;13.10;99.90;;;;;;5049988;28;20218;-45
2023/10/13 02:33:34;;;;;;;27.47;10.93;;;13.10;99.90;;;;;;5083512;28;20221;-46
2023/10/13 02:36:05;;;;;;;30.70;11.53;;;13.10;99.90;;;;;;5080518;28;20242;-48
2023/10/13 02:38:34;;;;;;;27.00;11.47;;;13.10;99.90;;;;;;5065369;28;20605;-45
2023/10/13 02:41:06;;;;;;;33.67;12.40;;;13.10;99.90;;;;;;5045009;28;20249;-48
2023/10/13 02:43:33;;;;;;;33.27;11.40;;;13.20;99.90;;;;;;5082269;28;20295;-45
2023/10/13 02:46:02;;;;;;;27.47;11.43;;;13.20;99.90;;;;;;5032599;28;20213;-49
2023/10/13 02:48:31;;;;;;;31.83;11.57;;;13.20;99.90;;;;;;5082815;28;20194;-47
2023/10/13 02:51:05;;;;;;;33.10;12.03;;;13.20;99.90;;;;;;5069716;28;20297;-49
2023/10/13 02:53:32;;;;;;;29.93;12.00;;;13.20;99.90;;;;;;5087682;28;20197;-46
2023/10/13 02:56:04;;;;;;;28.10;11.57;;;13.20;99.90;;;;;;5051073;28;20206;-47
2023/10/13 02:58:38;;;;;;;30.10;12.47;;;13.20;99.90;;;;;;5067603;28;20293;-49
2023/10/13 03:01:16;;;;;;;28.43;13.03;;;13.20;99.90;;;;;;5053861;28;20222;-47
2023/10/13 03:03:49;;;;;;;34.60;12.87;;;13.30;99.90;;;;;;5092617;28;20676;-49
2023/10/13 03:06:16;;;;;;;36.20;12.80;;;13.30;99.90;;;;;;5069578;28;20185;-47
2023/10/13 03:08:43;;;;;;;26.43;12.43;;;13.30;99.90;;;;;;5071633;28;20277;-49
2023/10/13 03:11:11;;;;;;;33.37;12.93;;;13.30;99.90;;;;;;5076404;28;20288;-47
2023/10/13 03:13:43;;;;;;;28.97;12.67;;;13.30;99.90;;;;;;5072351;28;20213;-47
2023/10/13 03:16:19;;;;;;;27.53;12.20;;;13.30;99.90;;;;;;5057668;28;20201;-45
2023/10/13 03:18:53;;;;;;;31.30;13.67;;;13.30;99.90;;;;;;5091564;28;20200;-47
2023/10/13 03:21:29;;;;;;;25.50;12.57;;;13.30;99.90;;;;;;5086260;28;20931;-46
2023/10/13 03:24:05;;;;;;;26.57;11.83;;;13.30;99.90;;;;;;5088851;28;20664;-45
2023/10/13 03:26:36;;;;;;;27.37;13.00;;;13.40;99.90;;;;;;5077907;28;20208;-46
2023/10/13 03:29:04;;;;;;;30.57;13.17;;;13.40;99.90;;;;;;5088155;28;20190;-49
2023/10/13 03:31:36;;;;;;;23.17;12.43;;;13.40;99.90;;;;;;5064075;28;20213;-47
2023/10/13 03:34:05;;;;;;;27.43;12.43;;;13.40;99.90;;;;;;5085040;28;20285;-46
2023/10/13 03:39:22;;;;;;;24.60;12.60;;;13.50;99.90;;;;;;5088457;28;20217;-47
2023/10/13 03:41:53;;;;;;;28.00;12.83;;;13.50;99.90;;;;;;5076698;28;20968;-49
2023/10/13 03:44:22;;;;;;;24.27;12.47;;;13.50;99.90;;;;;;5086935;28;20192;-45
2023/10/13 03:46:54;;;;;;;24.77;11.77;;;13.60;99.90;;;;;;5068042;28;20194;-46
2023/10/13 03:49:21;;;;;;;22.63;11.27;;;13.60;99.90;;;;;;5054529;28;20194;-47
2023/10/13 03:51:49;;;;;;;25.17;11.57;;;13.60;99.90;;;;;;5085949;28;20228;-49
2023/10/13 03:54:17;;;;;;;21.50;11.47;;;13.60;99.90;;;;;;5087352;28;20266;-47
2023/10/13 03:56:45;;;;;;;22.40;10.90;;;13.60;99.90;;;;;;5072190;28;20198;-48
2023/10/13 03:59:18;;;;;;;20.30;10.87;;;13.70;99.90;;;;;;5084820;28;20195;-50
2023/10/13 04:01:46;;;;;;;22.80;10.40;;;13.70;99.90;;;;;;5079761;28;20190;-46
2023/10/13 04:04:33;;;;;;;18.83;9.93;;;13.70;99.90;;;;;;5061826;28;20271;-46
2023/10/13 04:07:13;;;;;;;19.63;10.20;;;13.70;99.90;;;;;;5083344;28;20218;-50
2023/10/13 04:10:10;;;;;;;18.30;9.40;;;13.70;99.90;;;;;;5080430;28;20898;-47
2023/10/13 04:15:23;;;;;;;12.77;8.67;;;13.80;99.90;;;;;;5054057;28;20237;-45
2023/10/13 04:17:51;;;;;;;14.27;8.77;;;13.80;99.90;;;;;;5084533;28;20198;-46
2023/10/13 04:20:38;;;;;;;16.20;9.23;;;13.80;99.90;;;;;;5043803;28;20218;-46
2023/10/13 04:23:18;;;;;;;14.43;8.17;;;13.90;99.90;;;;;;5088054;28;20475;-45
2023/10/13 04:26:08;;;;;;;21.10;8.37;;;13.90;99.90;;;;;;5074850;28;20201;-46
2023/10/13 04:28:34;;;;;;;13.23;8.23;;;13.90;99.90;;;;;;5057942;28;20236;-50
2023/10/13 04:31:11;;;;;;;18.23;9.43;;;13.90;99.90;;;;;;5090597;28;20210;-49
2023/10/13 04:36:36;;;;;;;15.47;10.43;;;14.00;99.90;;;;;;5074833;28;20205;-49
2023/10/13 04:39:09;;;;;;;14.37;9.70;;;14.00;99.90;;;;;;5091771;28;20221;-47
2023/10/13 04:41:39;;;;;;;16.73;9.33;;;14.00;99.90;;;;;;5080906;28;20202;-47
2023/10/13 04:44:23;;;;;;;18.50;10.50;;;14.10;99.90;;;;;;5085558;28;20198;-48
2023/10/13 04:47:08;;;;;;;18.30;10.60;;;14.10;99.90;;;;;;5084429;28;20869;-47
2023/10/13 04:49:49;;;;;;;19.20;12.10;;;14.10;99.90;;;;;;5066210;28;20222;-45
2023/10/13 04:52:50;;;;;;;18.80;11.03;;;14.10;99.90;;;;;;5080203;28;20200;-46
2023/10/13 04:55:24;;;;;;;18.10;11.83;;;14.10;99.90;;;;;;5091626;28;20248;-47
2023/10/13 04:58:00;;;;;;;19.40;12.50;;;14.10;99.90;;;;;;5072917;28;20204;-48
2023/10/13 05:03:51;;;;;;;21.60;12.60;;;14.30;99.90;;;;;;5084213;28;20225;-47
2023/10/13 05:44:55;;;;;;;39.93;19.70;;;14.70;99.90;;;;;;5071799;28;20189;-46
2023/10/13 05:50:28;;;;;;;38.83;21.83;;;14.80;99.90;;;;;;5071778;28;20206;-49
2023/10/13 06:28:41;;;;;;;46.77;25.17;;;15.60;99.90;;;;;;5065650;28;20737;-43
2023/10/13 06:31:20;;;;;;;44.43;25.87;;;15.60;99.90;;;;;;5070257;28;20275;-51
2023/10/13 06:33:47;;;;;;;41.50;24.33;;;15.70;99.90;;;;;;5067976;28;20209;-51
2023/10/13 06:36:14;;;;;;;41.40;24.80;;;15.70;99.90;;;;;;5087117;28;21013;-49
2023/10/13 06:38:41;;;;;;;44.33;25.70;;;15.70;99.90;;;;;;5079011;28;20206;-49
2023/10/13 06:41:09;;;;;;;40.47;25.43;;;15.80;99.90;;;;;;5052883;28;20249;-47
2023/10/13 06:43:39;;;;;;;40.50;24.43;;;15.80;99.90;;;;;;5070380;28;20212;-49
2023/10/13 06:46:07;;;;;;;42.97;24.57;;;15.80;99.90;;;;;;5064837;28;20194;-47
2023/10/13 06:48:35;;;;;;;33.47;22.57;;;15.90;99.90;;;;;;5091696;28;20224;-49
2023/10/13 06:51:17;;;;;;;39.63;24.37;;;15.90;99.90;;;;;;5076716;28;20224;-47
2023/10/13 06:53:46;;;;;;;37.17;24.30;;;15.90;99.90;;;;;;5076682;28;20233;-49
2023/10/13 06:56:22;;;;;;;36.80;23.97;;;15.90;99.90;;;;;;5058685;28;20911;-47
2023/10/13 06:58:49;;;;;;;37.87;24.93;;;16.00;99.90;;;;;;5065576;28;20209;-43
2023/10/13 07:01:21;;;;;;;34.53;23.90;;;16.00;99.90;;;;;;5068386;28;20226;-46
2023/10/13 07:03:53;;;;;;;38.00;24.97;;;16.00;99.90;;;;;;5081757;28;20217;-43
2023/10/13 07:06:19;;;;;;;32.90;23.33;;;16.00;99.90;;;;;;5074679;28;20196;-47
2023/10/13 07:08:51;;;;;;;39.23;24.97;;;16.00;99.90;;;;;;5072900;28;20222;-43
2023/10/13 07:11:22;;;;;;;41.17;24.60;;;16.00;99.90;;;;;;5057395;28;20221;-46
2023/10/13 07:13:52;;;;;;;37.30;24.63;;;16.00;99.90;;;;;;5058289;28;20198;-47
2023/10/13 07:16:19;;;;;;;32.20;23.53;;;16.00;99.90;;;;;;5071946;28;20772;-46
2023/10/13 07:18:52;;;;;;;37.80;24.57;;;16.00;99.90;;;;;;5071825;28;20210;-43
2023/10/13 07:21:30;;;;;;;37.33;23.77;;;16.10;99.90;;;;;;5091591;28;20305;-48
2023/10/13 07:24:08;;;;;;;39.23;24.40;;;16.10;99.90;;;;;;5075328;28;20271;-44
2023/10/13 07:26:42;;;;;;;36.93;24.90;;;16.10;99.90;;;;;;5057326;28;20371;-44
2023/10/13 07:29:09;;;;;;;37.07;23.73;;;16.10;99.90;;;;;;5069315;28;20201;-49
2023/10/13 07:31:37;;;;;;;33.20;22.73;;;16.10;99.90;;;;;;5073092;28;20226;-44
2023/10/13 07:34:12;;;;;;;33.43;24.00;;;16.10;99.90;;;;;;5069129;28;20279;-48
2023/10/13 07:36:43;;;;;;;30.57;22.70;;;16.20;99.90;;;;;;5079021;28;20231;-45
2023/10/13 07:39:21;;;;;;;31.60;22.30;;;16.20;99.90;;;;;;5084595;28;20206;-46
2023/10/13 07:41:55;;;;;;;33.47;22.47;;;16.20;99.90;;;;;;5052157;28;21851;-46
2023/10/13 07:44:24;;;;;;;29.07;21.17;;;16.20;99.90;;;;;;5084309;28;20201;-48
2023/10/13 07:46:58;;;;;;;29.93;22.33;;;16.20;99.90;;;;;;5058631;28;20218;-45
2023/10/13 07:49:30;;;;;;;26.80;21.23;;;16.20;99.90;;;;;;5075074;28;20199;-49
2023/10/13 07:52:03;;;;;;;26.30;20.43;;;16.20;99.90;;;;;;5086156;28;20202;-45
2023/10/13 07:54:30;;;;;;;30.63;21.47;;;16.20;99.90;;;;;;5076340;28;20732;-43
2023/10/13 07:56:57;;;;;;;32.00;22.27;;;16.20;99.90;;;;;;5054980;28;20213;-48
2023/10/13 07:59:24;;;;;;;27.33;20.77;;;16.20;99.90;;;;;;5084674;28;20206;-48
2023/10/13 08:04:35;;;;;;;26.37;20.37;;;16.30;99.90;;;;;;5078686;28;20200;-44
2023/10/13 08:07:12;;;;;;;29.37;20.00;;;16.30;99.90;;;;;;5087839;28;20212;-45
2023/10/13 08:09:41;;;;;;;27.20;19.27;;;16.30;99.90;;;;;;5072228;28;20304;-43
2023/10/13 08:12:11;;;;;;;28.83;18.67;;;16.20;99.90;;;;;;5085866;28;20202;-49
2023/10/13 08:14:40;;;;;;;26.07;19.03;;;16.20;99.90;;;;;;5052893;28;20233;-44
2023/10/13 08:17:09;;;;;;;27.57;18.53;;;16.30;99.90;;;;;;5068542;28;20193;-46
2023/10/13 08:19:41;;;;;;;22.83;19.00;;;16.30;99.90;;;;;;5073327;28;20599;-43
2023/10/13 08:22:25;;;;;;;21.37;16.77;;;16.30;99.90;;;;;;5083255;28;20194;-46
2023/10/13 08:25:14;;;;;;;21.60;16.53;;;16.30;99.90;;;;;;5075711;28;20202;-51
2023/10/13 08:28:04;;;;;;;22.33;16.90;;;16.30;99.90;;;;;;5060245;28;20576;-42
2023/10/13 08:30:42;;;;;;;21.57;16.10;;;16.30;99.90;;;;;;5085451;28;20264;-44
2023/10/13 08:33:17;;;;;;;22.07;15.97;;;16.20;99.90;;;;;;5082541;28;20206;-45
2023/10/13 08:36:10;;;;;;;16.80;14.07;;;16.30;99.90;;;;;;5062437;28;20216;-43
2023/10/13 08:38:50;;;;;;;16.97;13.93;;;16.20;99.90;;;;;;5076668;28;20185;-43
2023/10/13 08:41:29;;;;;;;20.90;15.63;;;16.30;99.90;;;;;;5074484;28;20218;-46
2023/10/13 08:44:05;;;;;;;19.47;13.63;;;16.20;99.90;;;;;;5048251;28;20212;-48
2023/10/13 08:46:51;;;;;;;14.50;12.43;;;16.20;99.90;;;;;;5084982;28;20190;-43
2023/10/13 08:49:23;;;;;;;14.90;11.87;;;16.20;99.90;;;;;;5076288;28;20654;-47
2023/10/13 08:52:05;;;;;;;11.83;10.57;;;16.20;99.90;;;;;;5061762;28;20832;-48
2023/10/13 08:54:39;;;;;;;13.07;10.53;;;16.20;99.90;;;;;;5084941;28;20566;-44
2023/10/13 08:57:32;;;;;;;11.50;9.93;;;16.20;99.90;;;;;;5069289;28;20202;-47
2023/10/13 09:00:26;;;;;;;11.33;9.43;;;16.20;99.90;;;;;;5044616;28;20310;-48
2023/10/13 09:02:59;;;;;;;11.90;10.70;;;16.20;99.90;;;;;;5064993;28;20217;-46
2023/10/13 09:05:42;;;;;;;10.30;9.27;;;16.20;99.90;;;;;;5085034;28;20185;-45
2023/10/13 09:08:08;;;;;;;11.97;10.00;;;16.20;99.90;;;;;;5071128;28;20258;-46
2023/10/13 09:10:49;;;;;;;10.97;9.07;;;16.30;99.90;;;;;;5068706;28;20218;-47
2023/10/13 09:13:21;;;;;;;9.30;8.33;;;16.30;99.90;;;;;;5067681;28;20209;-44
2023/10/13 09:16:00;;;;;;;8.90;8.00;;;16.30;99.90;;;;;;5043752;28;20209;-49
2023/10/13 09:18:46;;;;;;;8.77;7.83;;;16.30;99.90;;;;;;5063395;28;20189;-45
2023/10/13 09:21:47;;;;;;;9.50;7.30;;;16.30;99.90;;;;;;5076012;28;20217;-44
2023/10/13 09:24:27;;;;;;;8.10;7.30;;;16.30;99.90;;;;;;5068382;28;20217;-44
2023/10/13 09:26:55;;;;;;;8.30;7.50;;;16.30;99.90;;;;;;5072934;28;20190;-48
2023/10/13 09:29:22;;;;;;;7.90;7.10;;;16.40;99.90;;;;;;5081517;28;20220;-44
2023/10/13 09:32:01;;;;;;;8.33;6.93;;;16.40;99.90;;;;;;5041883;28;20210;-43
2023/10/13 09:34:33;;;;;;;7.80;6.37;;;16.50;99.90;;;;;;5064991;28;20190;-46
2023/10/13 09:37:03;;;;;;;10.10;6.97;;;16.50;99.90;;;;;;5073779;28;20229;-43
2023/10/13 09:39:35;;;;;;;8.63;6.97;;;16.60;99.90;;;;;;5070991;28;20208;-44
2023/10/13 09:42:03;;;;;;;8.47;7.57;;;16.60;99.90;;;;;;5084135;28;20255;-45
2023/10/13 09:44:31;;;;;;;8.53;7.20;;;16.70;99.90;;;;;;5075313;28;20197;-46
2023/10/13 09:47:07;;;;;;;7.40;6.80;;;16.80;99.90;;;;;;5058877;28;20243;-47
2023/10/13 09:49:45;;;;;;;9.10;6.43;;;16.80;99.90;;;;;;5058802;28;20189;-48
2023/10/13 09:52:19;;;;;;;7.50;6.13;;;16.90;99.90;;;;;;5078479;28;20197;-44
2023/10/13 09:55:01;;;;;;;7.00;6.00;;;16.90;99.90;;;;;;5067919;28;20208;-48
2023/10/13 09:57:34;;;;;;;7.03;6.20;;;16.90;99.90;;;;;;5072396;28;20205;-47
2023/10/13 10:00:26;;;;;;;9.13;5.87;;;16.90;99.90;;;;;;5086411;28;20217;-46
2023/10/13 10:02:58;;;;;;;5.90;5.33;;;16.90;99.90;;;;;;5042058;28;20206;-44
2023/10/13 10:05:26;;;;;;;8.97;6.30;;;16.90;99.90;;;;;;5063793;28;20189;-48
2023/10/13 10:07:56;;;;;;;9.43;6.17;;;16.90;99.90;;;;;;5076585;28;20259;-52
2023/10/13 10:10:24;;;;;;;6.17;5.53;;;16.90;99.90;;;;;;5073681;28;20217;-48
2023/10/13 10:13:01;;;;;;;9.10;5.27;;;16.90;99.90;;;;;;5067269;28;20213;-49
2023/10/13 10:15:35;;;;;;;8.67;5.53;;;16.90;99.90;;;;;;5088699;28;20217;-50
2023/10/13 10:18:03;;;;;;;8.63;5.50;;;16.90;99.90;;;;;;5061624;28;20673;-46
2023/10/13 10:20:42;;;;;;;7.32;6.00;;;16.90;99.90;;;;;;5058835;28;20440;-48
2023/10/13 10:23:12;;;;;;;8.55;6.40;;;16.90;99.90;;;;;;5080033;28;20490;-47
2023/10/13 10:25:44;;;;;;;7.43;5.90;;;17.20;99.90;;;;;;5081017;28;20241;-47
2023/10/13 10:28:15;;;;;;;6.93;5.37;;;17.00;99.90;;;;;;5068996;28;20209;-46
2023/10/13 10:30:43;;;;;;;8.63;5.40;;;17.00;99.90;;;;;;5085814;28;20218;-47
2023/10/13 10:33:13;;;;;;;7.60;5.80;;;17.00;99.90;;;;;;5055544;28;20729;-46
2023/10/13 10:35:42;;;;;;;8.77;5.47;;;17.00;99.90;;;;;;5075869;28;20213;-54
2023/10/13 10:38:16;;;;;;;10.03;5.97;;;17.10;99.90;;;;;;5064468;28;20198;-45
2023/10/13 10:40:56;;;;;;;12.37;5.30;;;17.10;99.90;;;;;;5087180;28;20586;-48
2023/10/13 10:43:28;;;;;;;8.73;5.50;;;17.10;99.90;;;;;;5072269;28;20259;-52
2023/10/13 10:45:59;;;;;;;7.53;5.13;;;17.10;99.90;;;;;;5091323;28;20247;-47
2023/10/13 10:48:32;;;;;;;8.73;5.40;;;17.20;99.90;;;;;;5051659;28;20309;-51
2023/10/13 10:51:06;;;;;;;7.23;5.70;;;17.20;99.90;;;;;;5074127;28;20310;-48
2023/10/13 10:53:43;;;;;;;9.37;4.97;;;17.20;99.90;;;;;;5069208;28;20570;-48
2023/10/13 10:56:20;;;;;;;6.80;5.60;;;17.20;99.90;;;;;;5072171;28;20287;-48
2023/10/13 10:58:54;;;;;;;10.70;5.53;;;17.30;99.90;;;;;;5066178;28;20901;-48
2023/10/13 11:01:22;;;;;;;8.43;6.23;;;17.30;99.90;;;;;;5089136;28;20213;-48
2023/10/13 11:03:57;;;;;;;10.63;5.87;;;17.40;99.90;;;;;;5057662;28;20226;-47
2023/10/13 11:06:26;;;;;;;9.07;6.03;;;17.40;99.90;;;;;;5081370;28;20673;-50
2023/10/13 11:09:18;;;;;;;8.13;5.73;;;17.40;99.90;;;;;;5052798;28;20194;-46
2023/10/13 11:11:46;;;;;;;7.90;5.63;;;17.50;99.90;;;;;;5073317;28;20229;-47
2023/10/13 11:14:23;;;;;;;12.00;6.67;;;17.60;99.90;;;;;;5075224;28;20691;-52
2023/10/13 11:16:53;;;;;;;10.80;5.50;;;17.60;99.90;;;;;;5072451;28;20286;-47
2023/10/13 11:19:25;;;;;;;7.60;5.97;;;17.70;99.90;;;;;;5052284;28;20291;-49
2023/10/13 11:21:55;;;;;;;13.23;5.63;;;17.70;99.90;;;;;;5059327;28;20259;-48
2023/10/13 11:24:22;;;;;;;8.80;5.80;;;17.80;99.90;;;;;;5075892;28;20262;-47
2023/10/13 11:26:50;;;;;;;11.40;6.00;;;17.80;99.90;;;;;;5075054;28;20643;-47
2023/10/13 11:29:19;;;;;;;8.57;6.40;;;17.90;99.90;;;;;;5080516;28;20202;-50
2023/10/13 11:31:54;;;;;;;11.77;6.40;;;17.90;99.90;;;;;;5077829;28;20285;-44
2023/10/13 11:34:21;;;;;;;5.97;5.47;;;18.00;99.90;;;;;;5061181;28;20803;-50
2023/10/13 11:36:48;;;;;;;9.20;6.03;;;18.10;99.90;;;;;;5075217;28;20687;-45
2023/10/13 11:39:23;;;;;;;7.23;5.90;;;18.10;99.90;;;;;;5081507;28;20198;-47
2023/10/13 11:41:54;;;;;;;12.60;5.93;;;18.20;99.90;;;;;;5075977;28;20220;-49
2023/10/13 11:44:30;;;;;;;6.43;5.83;;;18.30;99.90;;;;;;5091642;28;20214;-47
2023/10/13 11:49:43;;;;;;;8.23;6.27;;;18.50;99.90;;;;;;5052276;28;20222;-49
2023/10/13 11:52:16;;;;;;;11.00;6.20;;;18.60;99.90;;;;;;5084581;28;20293;-45
2023/10/13 11:54:43;;;;;;;11.70;5.27;;;18.60;99.90;;;;;;5066377;28;20280;-45
2023/10/13 11:57:10;;;;;;;6.90;5.80;;;18.70;99.90;;;;;;5076297;28;20210;-50
2023/10/13 11:59:44;;;;;;;10.03;4.50;;;18.80;99.90;;;;;;5087512;28;20259;-47
2023/10/13 12:04:59;;;;;;;5.97;4.37;;;19.20;99.90;;;;;;5055927;28;20315;-48
2023/10/13 12:07:42;;;;;;;6.93;4.97;;;19.20;99.90;;;;;;5088178;28;20235;-50
2023/10/13 12:10:16;;;;;;;9.13;5.63;;;19.30;99.90;;;;;;5077161;28;20907;-49
2023/10/13 12:12:46;;;;;;;12.17;5.20;;;19.30;99.90;;;;;;5077939;28;20204;-47
2023/10/13 12:15:25;;;;;;;6.40;4.43;;;19.40;99.90;;;;;;5087961;28;20198;-54
2023/10/13 12:17:57;;;;;;;7.57;4.43;;;19.50;99.90;;;;;;5060228;28;20277;-45
2023/10/13 12:20:33;;;;;;;8.53;4.03;;;19.50;99.90;;;;;;5087526;28;20225;-47
2023/10/13 12:23:09;;;;;;;6.20;4.03;;;19.50;99.90;;;;;;5038454;28;21531;-47
2023/10/13 12:25:54;;;;;;;7.40;4.30;;;19.50;99.90;;;;;;5085847;28;20193;-46
2023/10/13 12:28:23;;;;;;;8.23;4.37;;;19.80;99.90;;;;;;5079254;28;20208;-48
2023/10/13 12:30:52;;;;;;;8.63;4.77;;;19.90;99.90;;;;;;5074879;28;20581;-43
2023/10/13 12:33:27;;;;;;;7.83;4.13;;;19.60;99.90;;;;;;5071288;28;20222;-48
2023/10/13 12:36:30;;;;;;;7.38;4.10;;;19.60;99.90;;;;;;5069951;28;20203;-53
2023/10/13 12:50:07;;;;;;;6.03;3.50;;;19.90;99.90;;;;;;5073489;28;20213;-51
2023/10/13 12:52:36;;;;;;;8.53;3.90;;;20.00;99.90;;;;;;5053062;28;20213;-53
2023/10/13 12:55:09;;;;;;;11.30;3.85;;;20.00;99.90;;;;;;5068643;28;20194;-52
2023/10/13 12:57:42;;;;;;;7.30;3.60;;;20.00;99.90;;;;;;5086996;28;20263;-52
2023/10/13 13:00:32;;;;;;;10.55;3.90;;;20.00;99.90;;;;;;5070145;28;20279;-49
2023/10/13 13:03:00;;;;;;;9.82;4.18;;;20.10;99.90;;;;;;5069408;28;20202;-52
2023/10/13 13:05:31;;;;;;;10.07;4.53;;;20.10;99.90;;;;;;5070724;28;20209;-53
2023/10/13 13:07:58;;;;;;;6.28;3.75;;;20.10;99.90;;;;;;5038435;28;20202;-46
2023/10/13 13:10:34;;;;;;;10.18;4.30;;;20.10;99.90;;;;;;5048067;28;20241;-45
2023/10/13 13:13:05;;;;;;;7.88;4.40;;;20.10;99.90;;;;;;5080136;28;20194;-42
2023/10/13 13:15:32;;;;;;;9.23;4.43;;;20.20;99.90;;;;;;5072361;28;20298;-49
2023/10/13 13:18:09;;;;;;;7.30;4.38;;;20.30;99.90;;;;;;5071020;28;20985;-47
2023/10/13 13:20:52;;;;;;;6.13;4.35;;;20.30;99.90;;;;;;5073002;28;20217;-45
2023/10/13 13:23:19;;;;;;;7.50;3.70;;;20.40;99.90;;;;;;5052794;28;20209;-48
2023/10/13 13:25:46;;;;;;;7.15;4.53;;;20.30;99.90;;;;;;5064115;28;20636;-47
2023/10/13 13:28:14;;;;;;;8.15;4.47;;;20.30;99.90;;;;;;5084921;28;20190;-54
2023/10/13 13:30:42;;;;;;;8.40;4.15;;;20.20;99.90;;;;;;5068352;28;20248;-54
2023/10/13 13:33:11;;;;;;;9.40;4.22;;;20.20;99.90;;;;;;5087892;28;20193;-48
2023/10/13 13:35:42;;;;;;;8.35;4.88;;;20.20;99.90;;;;;;5043378;28;21022;-48
2023/10/13 13:38:21;;;;;;;8.02;4.10;;;20.20;99.90;;;;;;5082667;28;20606;-46
2023/10/13 13:40:49;;;;;;;7.60;4.32;;;20.20;99.90;;;;;;5067115;28;20225;-45
2023/10/13 13:43:31;;;;;;;6.07;3.90;;;20.40;99.90;;;;;;5084475;28;20667;-43
2023/10/13 13:46:00;;;;;;;6.50;4.45;;;20.40;99.90;;;;;;5073172;28;20190;-48
2023/10/13 13:48:29;;;;;;;9.35;4.63;;;20.40;99.90;;;;;;5072408;28;20194;-44
2023/10/13 13:51:04;;;;;;;12.07;4.88;;;20.50;99.90;;;;;;5048121;28;20745;-53
2023/10/13 13:53:34;;;;;;;8.90;4.10;;;20.50;99.90;;;;;;5077734;28;20185;-48
2023/10/13 13:56:02;;;;;;;8.88;4.32;;;20.40;99.90;;;;;;5058153;28;20229;-47
2023/10/13 13:58:29;;;;;;;6.65;4.55;;;20.40;99.90;;;;;;5080364;28;20216;-48
2023/10/13 14:01:01;;;;;;;6.82;4.20;;;20.40;99.90;;;;;;5084245;28;20221;-47
2023/10/13 14:03:31;;;;;;;9.43;4.15;;;20.40;99.90;;;;;;5070363;28;20710;-45
2023/10/13 14:06:00;;;;;;;12.15;4.75;;;20.40;99.90;;;;;;5065481;28;20259;-51
2023/10/13 14:08:27;;;;;;;8.52;4.90;;;20.40;99.90;;;;;;5081707;28;20201;-47
2023/10/13 14:13:48;;;;;;;6.47;4.32;;;20.40;99.90;;;;;;5078476;28;20186;-50
2023/10/13 14:16:20;;;;;;;12.30;4.78;;;20.30;99.90;;;;;;5084013;28;20250;-45
2023/10/13 14:18:47;;;;;;;8.60;4.38;;;20.30;99.90;;;;;;5076951;28;20280;-52
2023/10/13 14:21:17;;;;;;;7.95;4.22;;;20.20;99.90;;;;;;5073949;28;20282;-45
2023/10/13 14:23:46;;;;;;;11.60;5.18;;;20.10;99.90;;;;;;5075659;28;20214;-47
2023/10/13 14:26:14;;;;;;;10.55;4.53;;;20.10;99.90;;;;;;5077907;28;20272;-44
2023/10/13 14:28:50;;;;;;;8.95;4.97;;;20.10;99.90;;;;;;5069528;28;20206;-47
2023/10/13 14:31:18;;;;;;;8.48;5.50;;;20.00;99.90;;;;;;5084237;28;20209;-44
2023/10/13 14:33:46;;;;;;;9.63;4.90;;;20.00;99.90;;;;;;5075174;28;20202;-47
2023/10/13 14:36:19;;;;;;;9.50;4.88;;;20.00;99.90;;;;;;5086878;28;20317;-44
2023/10/13 14:38:49;;;;;;;10.50;5.00;;;20.00;99.90;;;;;;5068700;28;20197;-46
2023/10/13 14:41:17;;;;;;;7.40;5.15;;;20.00;99.90;;;;;;5089822;28;20209;-46
2023/10/13 14:43:47;;;;;;;12.63;5.05;;;20.00;99.90;;;;;;5060081;28;20302;-50
2023/10/13 14:46:15;;;;;;;7.80;4.70;;;20.00;99.90;;;;;;5087305;28;20202;-49
2023/10/13 14:48:42;;;;;;;6.53;5.13;;;20.00;99.90;;;;;;5079557;28;20213;-46
2023/10/13 14:51:12;;;;;;;11.25;5.25;;;20.00;99.90;;;;;;5091869;28;20361;-50
2023/10/13 14:53:43;;;;;;;10.02;5.28;;;20.00;99.90;;;;;;5057498;28;20946;-45
2023/10/13 14:56:12;;;;;;;8.80;4.80;;;20.00;99.90;;;;;;5091888;28;20843;-48